sensor_id;sensor_type;location;lat;lon;timestamp;P1;durP1;ratioP1;P2;durP2;ratioP2
11960;SDS011;6040;49.358;11.140;2023-08-21T00:01:39;9.80;;;8.83;;
11960;SDS011;6040;49.358;11.140;2023-08-21T00:04:06;10.53;;;8.80;;
11960;SDS011;6040;49.358;11.140;2023-08-21T00:06:33;11.73;;;9.57;;
11960;SDS011;6040;49.358;11.140;2023-08-21T00:09:00;10.90;;;8.83;;
11960;SDS011;6040;49.358;11.140;2023-08-21T00:11:27;10.40;;;9.00;;
11960;SDS011;6040;49.358;11.140;2023-08-21T00:13:54;10.23;;;8.70;;
11960;SDS011;6040;49.358;11.140;2023-08-21T00:16:22;10.37;;;9.30;;
11960;SDS011;6040;49.358;11.140;2023-08-21T00:18:51;10.80;;;9.70;;
11960;SDS011;6040;49.358;11.140;2023-08-21T00:21:18;13.00;;;9.97;;
11960;SDS011;6040;49.358;11.140;2023-08-21T00:23:45;9.90;;;8.93;;
11960;SDS011;6040;49.358;11.140;2023-08-21T00:26:12;11.50;;;9.13;;
11960;SDS011;6040;49.358;11.140;2023-08-21T00:28:39;11.53;;;9.70;;
11960;SDS011;6040;49.358;11.140;2023-08-21T00:31:06;11.70;;;9.77;;
11960;SDS011;6040;49.358;11.140;2023-08-21T00:33:34;12.17;;;9.87;;
11960;SDS011;6040;49.358;11.140;2023-08-21T00:36:02;12.60;;;9.47;;
11960;SDS011;6040;49.358;11.140;2023-08-21T00:38:29;10.77;;;9.70;;
11960;SDS011;6040;49.358;11.140;2023-08-21T00:40:56;12.90;;;9.70;;
11960;SDS011;6040;49.358;11.140;2023-08-21T00:43:23;14.33;;;9.93;;
11960;SDS011;6040;49.358;11.140;2023-08-21T00:45:50;10.97;;;9.90;;
11960;SDS011;6040;49.358;11.140;2023-08-21T00:48:17;14.10;;;10.13;;
11960;SDS011;6040;49.358;11.140;2023-08-21T00:50:46;10.87;;;9.63;;
11960;SDS011;6040;49.358;11.140;2023-08-21T00:53:13;11.30;;;9.60;;
11960;SDS011;6040;49.358;11.140;2023-08-21T00:55:40;12.00;;;9.73;;
11960;SDS011;6040;49.358;11.140;2023-08-21T00:58:08;12.63;;;10.03;;
11960;SDS011;6040;49.358;11.140;2023-08-21T01:00:36;11.13;;;9.70;;
11960;SDS011;6040;49.358;11.140;2023-08-21T01:03:04;12.20;;;9.93;;
11960;SDS011;6040;49.358;11.140;2023-08-21T01:05:31;12.57;;;9.93;;
11960;SDS011;6040;49.358;11.140;2023-08-21T01:08:01;13.70;;;10.03;;
11960;SDS011;6040;49.358;11.140;2023-08-21T01:10:33;12.23;;;10.03;;
11960;SDS011;6040;49.358;11.140;2023-08-21T01:13:13;10.67;;;9.37;;
11960;SDS011;6040;49.358;11.140;2023-08-21T01:15:48;11.50;;;9.03;;
11960;SDS011;6040;49.358;11.140;2023-08-21T01:18:17;12.37;;;10.30;;
11960;SDS011;6040;49.358;11.140;2023-08-21T01:20:45;12.00;;;9.57;;
11960;SDS011;6040;49.358;11.140;2023-08-21T01:23:26;12.40;;;9.90;;
11960;SDS011;6040;49.358;11.140;2023-08-21T01:25:54;16.37;;;10.40;;
11960;SDS011;6040;49.358;11.140;2023-08-21T01:28:21;12.67;;;10.53;;
11960;SDS011;6040;49.358;11.140;2023-08-21T01:30:48;12.13;;;10.70;;
11960;SDS011;6040;49.358;11.140;2023-08-21T01:33:20;14.33;;;10.97;;
11960;SDS011;6040;49.358;11.140;2023-08-21T01:35:49;11.50;;;10.30;;
11960;SDS011;6040;49.358;11.140;2023-08-21T01:38:16;16.43;;;11.00;;
11960;SDS011;6040;49.358;11.140;2023-08-21T01:40:46;13.50;;;10.60;;
11960;SDS011;6040;49.358;11.140;2023-08-21T01:43:13;13.63;;;9.83;;
11960;SDS011;6040;49.358;11.140;2023-08-21T01:45:40;13.97;;;10.47;;
11960;SDS011;6040;49.358;11.140;2023-08-21T01:48:06;12.60;;;10.87;;
11960;SDS011;6040;49.358;11.140;2023-08-21T01:50:33;10.90;;;9.67;;
11960;SDS011;6040;49.358;11.140;2023-08-21T01:53:00;11.40;;;10.40;;
11960;SDS011;6040;49.358;11.140;2023-08-21T01:55:27;12.73;;;10.50;;
11960;SDS011;6040;49.358;11.140;2023-08-21T01:57:55;12.10;;;10.17;;
11960;SDS011;6040;49.358;11.140;2023-08-21T02:00:22;14.07;;;10.43;;
11960;SDS011;6040;49.358;11.140;2023-08-21T02:02:49;12.93;;;11.03;;
11960;SDS011;6040;49.358;11.140;2023-08-21T02:05:16;14.57;;;10.77;;
11960;SDS011;6040;49.358;11.140;2023-08-21T02:07:42;16.40;;;10.40;;
11960;SDS011;6040;49.358;11.140;2023-08-21T02:10:10;12.03;;;10.53;;
11960;SDS011;6040;49.358;11.140;2023-08-21T02:12:36;11.23;;;9.70;;
11960;SDS011;6040;49.358;11.140;2023-08-21T02:15:05;12.87;;;9.73;;
11960;SDS011;6040;49.358;11.140;2023-08-21T02:17:33;11.67;;;9.90;;
11960;SDS011;6040;49.358;11.140;2023-08-21T02:19:59;11.63;;;10.40;;
11960;SDS011;6040;49.358;11.140;2023-08-21T02:22:26;11.57;;;10.57;;
11960;SDS011;6040;49.358;11.140;2023-08-21T02:24:53;12.93;;;10.27;;
11960;SDS011;6040;49.358;11.140;2023-08-21T02:27:20;14.07;;;10.87;;
11960;SDS011;6040;49.358;11.140;2023-08-21T02:29:47;11.73;;;10.30;;
11960;SDS011;6040;49.358;11.140;2023-08-21T02:32:15;11.30;;;10.10;;
11960;SDS011;6040;49.358;11.140;2023-08-21T02:34:42;19.80;;;10.47;;
11960;SDS011;6040;49.358;11.140;2023-08-21T02:37:08;11.93;;;10.63;;
11960;SDS011;6040;49.358;11.140;2023-08-21T02:39:35;12.40;;;11.13;;
11960;SDS011;6040;49.358;11.140;2023-08-21T02:42:02;12.60;;;11.00;;
11960;SDS011;6040;49.358;11.140;2023-08-21T02:44:29;11.90;;;10.70;;
11960;SDS011;6040;49.358;11.140;2023-08-21T02:46:56;11.10;;;9.87;;
11960;SDS011;6040;49.358;11.140;2023-08-21T02:49:24;13.77;;;10.40;;
11960;SDS011;6040;49.358;11.140;2023-08-21T02:51:51;12.37;;;11.17;;
11960;SDS011;6040;49.358;11.140;2023-08-21T02:54:17;12.57;;;10.53;;
11960;SDS011;6040;49.358;11.140;2023-08-21T02:56:44;14.03;;;10.03;;
11960;SDS011;6040;49.358;11.140;2023-08-21T02:59:11;11.13;;;10.13;;
11960;SDS011;6040;49.358;11.140;2023-08-21T03:01:38;13.87;;;10.53;;
11960;SDS011;6040;49.358;11.140;2023-08-21T03:04:05;12.00;;;10.47;;
11960;SDS011;6040;49.358;11.140;2023-08-21T03:06:33;11.40;;;10.20;;
11960;SDS011;6040;49.358;11.140;2023-08-21T03:08:59;11.70;;;10.60;;
11960;SDS011;6040;49.358;11.140;2023-08-21T03:11:26;11.80;;;10.60;;
11960;SDS011;6040;49.358;11.140;2023-08-21T03:13:53;12.43;;;10.90;;
11960;SDS011;6040;49.358;11.140;2023-08-21T03:16:20;11.77;;;10.67;;
11960;SDS011;6040;49.358;11.140;2023-08-21T03:18:53;13.13;;;11.07;;
11960;SDS011;6040;49.358;11.140;2023-08-21T03:21:21;11.97;;;10.77;;
11960;SDS011;6040;49.358;11.140;2023-08-21T03:23:51;13.23;;;11.00;;
11960;SDS011;6040;49.358;11.140;2023-08-21T03:26:22;15.77;;;11.20;;
11960;SDS011;6040;49.358;11.140;2023-08-21T03:28:48;11.97;;;10.63;;
11960;SDS011;6040;49.358;11.140;2023-08-21T03:31:15;13.23;;;11.63;;
11960;SDS011;6040;49.358;11.140;2023-08-21T03:33:42;15.13;;;11.00;;
11960;SDS011;6040;49.358;11.140;2023-08-21T03:36:09;12.97;;;10.37;;
11960;SDS011;6040;49.358;11.140;2023-08-21T03:38:36;12.77;;;10.20;;
11960;SDS011;6040;49.358;11.140;2023-08-21T03:41:04;13.60;;;11.10;;
11960;SDS011;6040;49.358;11.140;2023-08-21T03:43:31;12.07;;;10.80;;
11960;SDS011;6040;49.358;11.140;2023-08-21T03:45:58;12.07;;;10.87;;
11960;SDS011;6040;49.358;11.140;2023-08-21T03:48:24;12.90;;;10.80;;
11960;SDS011;6040;49.358;11.140;2023-08-21T03:50:51;13.57;;;11.20;;
11960;SDS011;6040;49.358;11.140;2023-08-21T03:53:18;12.27;;;11.10;;
11960;SDS011;6040;49.358;11.140;2023-08-21T03:55:45;11.77;;;10.57;;
11960;SDS011;6040;49.358;11.140;2023-08-21T03:58:13;12.53;;;11.23;;
11960;SDS011;6040;49.358;11.140;2023-08-21T04:00:41;12.67;;;11.10;;
11960;SDS011;6040;49.358;11.140;2023-08-21T04:03:07;12.73;;;11.43;;
11960;SDS011;6040;49.358;11.140;2023-08-21T04:05:34;15.13;;;10.80;;
11960;SDS011;6040;49.358;11.140;2023-08-21T04:08:01;11.97;;;10.77;;
11960;SDS011;6040;49.358;11.140;2023-08-21T04:10:28;14.73;;;11.07;;
11960;SDS011;6040;49.358;11.140;2023-08-21T04:12:55;13.47;;;11.73;;
11960;SDS011;6040;49.358;11.140;2023-08-21T04:15:23;14.30;;;11.73;;
11960;SDS011;6040;49.358;11.140;2023-08-21T04:17:50;12.67;;;11.37;;
11960;SDS011;6040;49.358;11.140;2023-08-21T04:20:17;13.07;;;10.37;;
11960;SDS011;6040;49.358;11.140;2023-08-21T04:22:46;14.90;;;11.13;;
11960;SDS011;6040;49.358;11.140;2023-08-21T04:25:13;11.90;;;10.70;;
11960;SDS011;6040;49.358;11.140;2023-08-21T04:27:40;12.43;;;11.13;;
11960;SDS011;6040;49.358;11.140;2023-08-21T04:30:07;12.23;;;10.73;;
11960;SDS011;6040;49.358;11.140;2023-08-21T04:32:36;11.93;;;10.80;;
11960;SDS011;6040;49.358;11.140;2023-08-21T04:35:03;13.00;;;11.70;;
11960;SDS011;6040;49.358;11.140;2023-08-21T04:37:31;12.90;;;11.70;;
11960;SDS011;6040;49.358;11.140;2023-08-21T04:39:58;14.37;;;11.57;;
11960;SDS011;6040;49.358;11.140;2023-08-21T04:42:24;12.90;;;11.60;;
11960;SDS011;6040;49.358;11.140;2023-08-21T04:44:51;13.20;;;11.80;;
11960;SDS011;6040;49.358;11.140;2023-08-21T04:47:19;13.47;;;11.97;;
11960;SDS011;6040;49.358;11.140;2023-08-21T04:49:48;13.23;;;11.83;;
11960;SDS011;6040;49.358;11.140;2023-08-21T04:52:14;16.13;;;12.37;;
11960;SDS011;6040;49.358;11.140;2023-08-21T04:54:41;13.43;;;12.07;;
11960;SDS011;6040;49.358;11.140;2023-08-21T04:57:08;13.33;;;11.67;;
11960;SDS011;6040;49.358;11.140;2023-08-21T04:59:35;14.73;;;11.90;;
11960;SDS011;6040;49.358;11.140;2023-08-21T05:02:02;13.43;;;11.50;;
11960;SDS011;6040;49.358;11.140;2023-08-21T05:04:29;11.90;;;10.87;;
11960;SDS011;6040;49.358;11.140;2023-08-21T05:06:57;15.37;;;11.97;;
11960;SDS011;6040;49.358;11.140;2023-08-21T05:09:24;12.70;;;11.47;;
11960;SDS011;6040;49.358;11.140;2023-08-21T05:11:50;13.93;;;11.27;;
11960;SDS011;6040;49.358;11.140;2023-08-21T05:14:17;13.17;;;11.53;;
11960;SDS011;6040;49.358;11.140;2023-08-21T05:16:44;12.50;;;11.20;;
11960;SDS011;6040;49.358;11.140;2023-08-21T05:19:11;13.07;;;11.50;;
11960;SDS011;6040;49.358;11.140;2023-08-21T05:21:39;14.73;;;11.87;;
11960;SDS011;6040;49.358;11.140;2023-08-21T05:24:07;15.50;;;11.97;;
11960;SDS011;6040;49.358;11.140;2023-08-21T05:26:35;13.23;;;11.93;;
11960;SDS011;6040;49.358;11.140;2023-08-21T05:29:01;12.73;;;11.53;;
11960;SDS011;6040;49.358;11.140;2023-08-21T05:31:28;15.03;;;11.50;;
11960;SDS011;6040;49.358;11.140;2023-08-21T05:33:55;13.40;;;12.00;;
11960;SDS011;6040;49.358;11.140;2023-08-21T05:36:22;12.70;;;10.97;;
11960;SDS011;6040;49.358;11.140;2023-08-21T05:38:49;14.50;;;11.20;;
11960;SDS011;6040;49.358;11.140;2023-08-21T05:41:17;12.40;;;11.20;;
11960;SDS011;6040;49.358;11.140;2023-08-21T05:43:44;15.97;;;10.83;;
11960;SDS011;6040;49.358;11.140;2023-08-21T05:46:12;15.87;;;10.60;;
11960;SDS011;6040;49.358;11.140;2023-08-21T05:48:39;11.30;;;10.23;;
11960;SDS011;6040;49.358;11.140;2023-08-21T05:51:06;11.10;;;9.93;;
11960;SDS011;6040;49.358;11.140;2023-08-21T05:53:32;18.30;;;10.20;;
11960;SDS011;6040;49.358;11.140;2023-08-21T05:55:59;12.40;;;9.83;;
11960;SDS011;6040;49.358;11.140;2023-08-21T05:58:27;14.53;;;10.40;;
11960;SDS011;6040;49.358;11.140;2023-08-21T06:00:56;14.88;;;9.68;;
11960;SDS011;6040;49.358;11.140;2023-08-21T06:03:23;19.67;;;9.43;;
11960;SDS011;6040;49.358;11.140;2023-08-21T06:05:50;9.98;;;9.02;;
11960;SDS011;6040;49.358;11.140;2023-08-21T06:08:17;11.02;;;9.88;;
11960;SDS011;6040;49.358;11.140;2023-08-21T06:10:44;10.93;;;9.85;;
11960;SDS011;6040;49.358;11.140;2023-08-21T06:13:11;12.77;;;10.20;;
11960;SDS011;6040;49.358;11.140;2023-08-21T06:15:39;13.30;;;10.38;;
11960;SDS011;6040;49.358;11.140;2023-08-21T06:18:10;13.98;;;10.52;;
11960;SDS011;6040;49.358;11.140;2023-08-21T06:20:36;11.80;;;10.52;;
11960;SDS011;6040;49.358;11.140;2023-08-21T06:23:04;11.73;;;9.85;;
11960;SDS011;6040;49.358;11.140;2023-08-21T06:25:32;12.13;;;10.00;;
11960;SDS011;6040;49.358;11.140;2023-08-21T06:27:59;12.10;;;10.15;;
11960;SDS011;6040;49.358;11.140;2023-08-21T06:30:26;11.02;;;9.57;;
11960;SDS011;6040;49.358;11.140;2023-08-21T06:32:54;13.07;;;10.13;;
11960;SDS011;6040;49.358;11.140;2023-08-21T06:35:21;11.30;;;10.00;;
11960;SDS011;6040;49.358;11.140;2023-08-21T06:37:48;16.40;;;10.95;;
11960;SDS011;6040;49.358;11.140;2023-08-21T06:40:15;12.48;;;9.82;;
11960;SDS011;6040;49.358;11.140;2023-08-21T06:42:42;11.45;;;9.45;;
11960;SDS011;6040;49.358;11.140;2023-08-21T06:45:09;15.82;;;10.60;;
11960;SDS011;6040;49.358;11.140;2023-08-21T06:47:36;12.00;;;9.68;;
11960;SDS011;6040;49.358;11.140;2023-08-21T06:50:04;13.00;;;10.25;;
11960;SDS011;6040;49.358;11.140;2023-08-21T06:52:31;14.77;;;9.85;;
11960;SDS011;6040;49.358;11.140;2023-08-21T06:54:58;11.32;;;9.45;;
11960;SDS011;6040;49.358;11.140;2023-08-21T06:57:25;12.23;;;9.85;;
11960;SDS011;6040;49.358;11.140;2023-08-21T06:59:52;10.35;;;9.45;;
11960;SDS011;6040;49.358;11.140;2023-08-21T07:02:19;11.23;;;10.00;;
11960;SDS011;6040;49.358;11.140;2023-08-21T07:04:46;13.02;;;10.13;;
11960;SDS011;6040;49.358;11.140;2023-08-21T07:07:14;10.98;;;9.77;;
11960;SDS011;6040;49.358;11.140;2023-08-21T07:09:41;15.00;;;10.45;;
11960;SDS011;6040;49.358;11.140;2023-08-21T07:12:07;13.52;;;10.45;;
11960;SDS011;6040;49.358;11.140;2023-08-21T07:14:34;13.70;;;10.75;;
11960;SDS011;6040;49.358;11.140;2023-08-21T07:17:01;13.23;;;10.38;;
11960;SDS011;6040;49.358;11.140;2023-08-21T07:19:28;11.52;;;10.10;;
11960;SDS011;6040;49.358;11.140;2023-08-21T07:21:55;12.73;;;9.75;;
11960;SDS011;6040;49.358;11.140;2023-08-21T07:24:23;12.23;;;10.27;;
11960;SDS011;6040;49.358;11.140;2023-08-21T07:26:50;11.25;;;10.02;;
11960;SDS011;6040;49.358;11.140;2023-08-21T07:29:16;11.00;;;9.98;;
11960;SDS011;6040;49.358;11.140;2023-08-21T07:31:43;13.95;;;9.80;;
11960;SDS011;6040;49.358;11.140;2023-08-21T07:34:10;12.68;;;10.20;;
11960;SDS011;6040;49.358;11.140;2023-08-21T07:36:37;12.85;;;10.43;;
11960;SDS011;6040;49.358;11.140;2023-08-21T07:39:03;13.88;;;10.02;;
11960;SDS011;6040;49.358;11.140;2023-08-21T07:41:32;12.10;;;10.30;;
11960;SDS011;6040;49.358;11.140;2023-08-21T07:43:59;10.75;;;9.70;;
11960;SDS011;6040;49.358;11.140;2023-08-21T07:46:26;10.68;;;9.65;;
11960;SDS011;6040;49.358;11.140;2023-08-21T07:48:53;15.27;;;10.32;;
11960;SDS011;6040;49.358;11.140;2023-08-21T07:51:20;14.32;;;10.10;;
11960;SDS011;6040;49.358;11.140;2023-08-21T07:53:47;11.77;;;10.52;;
11960;SDS011;6040;49.358;11.140;2023-08-21T07:56:14;11.13;;;9.50;;
11960;SDS011;6040;49.358;11.140;2023-08-21T07:58:42;11.23;;;10.13;;
11960;SDS011;6040;49.358;11.140;2023-08-21T08:01:09;12.20;;;10.32;;
11960;SDS011;6040;49.358;11.140;2023-08-21T08:03:35;11.95;;;9.63;;
11960;SDS011;6040;49.358;11.140;2023-08-21T08:06:03;16.45;;;12.02;;
11960;SDS011;6040;49.358;11.140;2023-08-21T08:08:29;11.32;;;10.13;;
11960;SDS011;6040;49.358;11.140;2023-08-21T08:10:59;11.18;;;10.05;;
11960;SDS011;6040;49.358;11.140;2023-08-21T08:13:27;11.52;;;10.32;;
11960;SDS011;6040;49.358;11.140;2023-08-21T08:15:55;10.63;;;9.63;;
11960;SDS011;6040;49.358;11.140;2023-08-21T08:18:22;10.50;;;9.52;;
11960;SDS011;6040;49.358;11.140;2023-08-21T08:20:49;13.48;;;9.73;;
11960;SDS011;6040;49.358;11.140;2023-08-21T08:23:17;11.15;;;9.30;;
11960;SDS011;6040;49.358;11.140;2023-08-21T08:25:45;11.65;;;9.98;;
11960;SDS011;6040;49.358;11.140;2023-08-21T08:28:13;14.65;;;9.38;;
11960;SDS011;6040;49.358;11.140;2023-08-21T08:30:39;10.23;;;9.23;;
11960;SDS011;6040;49.358;11.140;2023-08-21T08:33:08;10.15;;;9.18;;
11960;SDS011;6040;49.358;11.140;2023-08-21T08:35:34;12.88;;;9.75;;
11960;SDS011;6040;49.358;11.140;2023-08-21T08:38:01;11.80;;;10.27;;
11960;SDS011;6040;49.358;11.140;2023-08-21T08:40:28;11.45;;;9.45;;
11960;SDS011;6040;49.358;11.140;2023-08-21T08:42:55;13.07;;;9.73;;
11960;SDS011;6040;49.358;11.140;2023-08-21T08:45:24;13.07;;;9.73;;
11960;SDS011;6040;49.358;11.140;2023-08-21T08:47:55;11.10;;;9.07;;
11960;SDS011;6040;49.358;11.140;2023-08-21T08:50:25;10.57;;;9.57;;
11960;SDS011;6040;49.358;11.140;2023-08-21T08:52:55;11.55;;;9.75;;
11960;SDS011;6040;49.358;11.140;2023-08-21T08:55:23;12.45;;;9.05;;
11960;SDS011;6040;49.358;11.140;2023-08-21T08:57:51;10.93;;;9.50;;
11960;SDS011;6040;49.358;11.140;2023-08-21T09:00:18;10.95;;;9.85;;
11960;SDS011;6040;49.358;11.140;2023-08-21T09:02:45;10.70;;;9.60;;
11960;SDS011;6040;49.358;11.140;2023-08-21T09:05:12;10.55;;;9.35;;
11960;SDS011;6040;49.358;11.140;2023-08-21T09:07:40;14.45;;;9.85;;
11960;SDS011;6040;49.358;11.140;2023-08-21T09:10:12;14.07;;;10.25;;
11960;SDS011;6040;49.358;11.140;2023-08-21T09:12:40;15.32;;;10.00;;
11960;SDS011;6040;49.358;11.140;2023-08-21T09:15:07;11.68;;;9.80;;
11960;SDS011;6040;49.358;11.140;2023-08-21T09:17:35;13.63;;;9.75;;
11960;SDS011;6040;49.358;11.140;2023-08-21T09:20:05;12.27;;;9.10;;
11960;SDS011;6040;49.358;11.140;2023-08-21T09:22:33;12.45;;;9.73;;
11960;SDS011;6040;49.358;11.140;2023-08-21T09:25:02;10.68;;;8.98;;
11960;SDS011;6040;49.358;11.140;2023-08-21T09:27:31;15.27;;;9.75;;
11960;SDS011;6040;49.358;11.140;2023-08-21T09:30:00;11.10;;;10.00;;
11960;SDS011;6040;49.358;11.140;2023-08-21T09:32:27;12.80;;;9.68;;
11960;SDS011;6040;49.358;11.140;2023-08-21T09:34:54;9.45;;;8.40;;
11960;SDS011;6040;49.358;11.140;2023-08-21T09:37:20;10.07;;;8.48;;
11960;SDS011;6040;49.358;11.140;2023-08-21T09:39:54;12.70;;;8.18;;
11960;SDS011;6040;49.358;11.140;2023-08-21T09:42:28;9.82;;;8.88;;
11960;SDS011;6040;49.358;11.140;2023-08-21T09:44:55;10.93;;;8.35;;
11960;SDS011;6040;49.358;11.140;2023-08-21T09:47:22;9.07;;;8.10;;
11960;SDS011;6040;49.358;11.140;2023-08-21T09:49:51;9.98;;;7.55;;
11960;SDS011;6040;49.358;11.140;2023-08-21T09:52:19;11.40;;;6.78;;
11960;SDS011;6040;49.358;11.140;2023-08-21T09:54:46;8.43;;;7.53;;
11960;SDS011;6040;49.358;11.140;2023-08-21T09:57:14;8.27;;;7.20;;
11960;SDS011;6040;49.358;11.140;2023-08-21T09:59:43;8.95;;;7.43;;
11960;SDS011;6040;49.358;11.140;2023-08-21T10:02:10;8.40;;;7.60;;
11960;SDS011;6040;49.358;11.140;2023-08-21T10:04:38;10.18;;;6.78;;
11960;SDS011;6040;49.358;11.140;2023-08-21T10:07:08;7.80;;;7.00;;
11960;SDS011;6040;49.358;11.140;2023-08-21T10:09:36;9.52;;;7.60;;
11960;SDS011;6040;49.358;11.140;2023-08-21T10:12:05;8.30;;;7.45;;
11960;SDS011;6040;49.358;11.140;2023-08-21T10:14:34;11.32;;;7.80;;
11960;SDS011;6040;49.358;11.140;2023-08-21T10:17:03;7.28;;;6.57;;
11960;SDS011;6040;49.358;11.140;2023-08-21T10:19:33;7.80;;;6.22;;
11960;SDS011;6040;49.358;11.140;2023-08-21T10:22:00;9.05;;;6.93;;
11960;SDS011;6040;49.358;11.140;2023-08-21T10:24:28;8.50;;;5.95;;
11960;SDS011;6040;49.358;11.140;2023-08-21T10:26:59;8.45;;;5.88;;
11960;SDS011;6040;49.358;11.140;2023-08-21T10:29:26;9.15;;;5.97;;
11960;SDS011;6040;49.358;11.140;2023-08-21T10:32:00;9.70;;;5.85;;
11960;SDS011;6040;49.358;11.140;2023-08-21T10:34:33;8.50;;;6.20;;
11960;SDS011;6040;49.358;11.140;2023-08-21T10:37:06;10.25;;;6.43;;
11960;SDS011;6040;49.358;11.140;2023-08-21T10:39:35;7.32;;;6.18;;
11960;SDS011;6040;49.358;11.140;2023-08-21T10:42:05;8.40;;;6.10;;
11960;SDS011;6040;49.358;11.140;2023-08-21T10:44:37;10.30;;;6.70;;
11960;SDS011;6040;49.358;11.140;2023-08-21T10:47:16;7.65;;;6.63;;
11960;SDS011;6040;49.358;11.140;2023-08-21T10:49:46;6.72;;;6.13;;
11960;SDS011;6040;49.358;11.140;2023-08-21T10:52:15;7.25;;;6.55;;
11960;SDS011;6040;49.358;11.140;2023-08-21T10:54:49;9.20;;;6.82;;
11960;SDS011;6040;49.358;11.140;2023-08-21T10:57:18;7.53;;;6.50;;
11960;SDS011;6040;49.358;11.140;2023-08-21T10:59:52;9.75;;;7.05;;
11960;SDS011;6040;49.358;11.140;2023-08-21T11:02:20;8.48;;;7.13;;
11960;SDS011;6040;49.358;11.140;2023-08-21T11:04:49;7.05;;;6.00;;
11960;SDS011;6040;49.358;11.140;2023-08-21T11:07:16;6.90;;;6.28;;
11960;SDS011;6040;49.358;11.140;2023-08-21T11:09:44;8.77;;;6.80;;
11960;SDS011;6040;49.358;11.140;2023-08-21T11:12:12;7.13;;;6.43;;
11960;SDS011;6040;49.358;11.140;2023-08-21T11:14:40;7.97;;;6.45;;
11960;SDS011;6040;49.358;11.140;2023-08-21T11:17:07;8.82;;;6.50;;
11960;SDS011;6040;49.358;11.140;2023-08-21T11:19:35;7.65;;;6.50;;
11960;SDS011;6040;49.358;11.140;2023-08-21T11:22:04;7.57;;;5.80;;
11960;SDS011;6040;49.358;11.140;2023-08-21T11:24:41;7.60;;;6.47;;
11960;SDS011;6040;49.358;11.140;2023-08-21T11:27:10;7.78;;;6.15;;
11960;SDS011;6040;49.358;11.140;2023-08-21T11:29:39;6.65;;;5.97;;
11960;SDS011;6040;49.358;11.140;2023-08-21T11:32:10;8.07;;;6.13;;
11960;SDS011;6040;49.358;11.140;2023-08-21T11:34:38;7.40;;;5.80;;
11960;SDS011;6040;49.358;11.140;2023-08-21T11:37:06;7.47;;;5.72;;
11960;SDS011;6040;49.358;11.140;2023-08-21T11:39:43;6.97;;;5.80;;
11960;SDS011;6040;49.358;11.140;2023-08-21T11:42:11;9.43;;;5.95;;
11960;SDS011;6040;49.358;11.140;2023-08-21T11:44:45;9.88;;;5.88;;
11960;SDS011;6040;49.358;11.140;2023-08-21T11:47:14;8.85;;;5.95;;
11960;SDS011;6040;49.358;11.140;2023-08-21T11:49:42;7.32;;;5.22;;
11960;SDS011;6040;49.358;11.140;2023-08-21T11:52:11;7.07;;;5.45;;
11960;SDS011;6040;49.358;11.140;2023-08-21T11:54:38;6.10;;;5.35;;
11960;SDS011;6040;49.358;11.140;2023-08-21T11:57:07;11.57;;;6.30;;
11960;SDS011;6040;49.358;11.140;2023-08-21T11:59:35;9.75;;;5.47;;
11960;SDS011;6040;49.358;11.140;2023-08-21T12:02:08;6.40;;;5.40;;
11960;SDS011;6040;49.358;11.140;2023-08-21T12:04:37;6.75;;;5.28;;
11960;SDS011;6040;49.358;11.140;2023-08-21T12:07:03;7.60;;;5.78;;
11960;SDS011;6040;49.358;11.140;2023-08-21T12:09:32;7.80;;;5.50;;
11960;SDS011;6040;49.358;11.140;2023-08-21T12:11:59;8.20;;;5.80;;
11960;SDS011;6040;49.358;11.140;2023-08-21T12:14:27;6.22;;;5.40;;
11960;SDS011;6040;49.358;11.140;2023-08-21T12:16:54;10.40;;;5.78;;
11960;SDS011;6040;49.358;11.140;2023-08-21T12:19:22;10.77;;;5.93;;
11960;SDS011;6040;49.358;11.140;2023-08-21T12:21:49;7.63;;;5.75;;
11960;SDS011;6040;49.358;11.140;2023-08-21T12:24:16;6.15;;;5.47;;
11960;SDS011;6040;49.358;11.140;2023-08-21T12:26:44;7.03;;;6.00;;
11960;SDS011;6040;49.358;11.140;2023-08-21T12:29:11;9.30;;;6.10;;
11960;SDS011;6040;49.358;11.140;2023-08-21T12:31:38;8.90;;;6.00;;
11960;SDS011;6040;49.358;11.140;2023-08-21T12:34:05;10.70;;;6.45;;
11960;SDS011;6040;49.358;11.140;2023-08-21T12:36:33;10.40;;;6.72;;
11960;SDS011;6040;49.358;11.140;2023-08-21T12:39:01;8.25;;;6.57;;
11960;SDS011;6040;49.358;11.140;2023-08-21T12:41:28;7.07;;;6.38;;
11960;SDS011;6040;49.358;11.140;2023-08-21T12:43:56;6.95;;;6.25;;
11960;SDS011;6040;49.358;11.140;2023-08-21T12:46:23;8.60;;;6.15;;
11960;SDS011;6040;49.358;11.140;2023-08-21T12:48:51;9.70;;;6.13;;
11960;SDS011;6040;49.358;11.140;2023-08-21T12:51:18;11.88;;;6.25;;
11960;SDS011;6040;49.358;11.140;2023-08-21T12:53:44;10.43;;;6.43;;
11960;SDS011;6040;49.358;11.140;2023-08-21T12:56:11;7.57;;;5.82;;
11960;SDS011;6040;49.358;11.140;2023-08-21T12:58:38;6.75;;;5.72;;
11960;SDS011;6040;49.358;11.140;2023-08-21T13:01:06;8.48;;;5.45;;
11960;SDS011;6040;49.358;11.140;2023-08-21T13:03:33;8.93;;;5.88;;
11960;SDS011;6040;49.358;11.140;2023-08-21T13:06:00;9.38;;;6.10;;
11960;SDS011;6040;49.358;11.140;2023-08-21T13:08:27;7.00;;;6.20;;
11960;SDS011;6040;49.358;11.140;2023-08-21T13:10:54;9.15;;;5.93;;
11960;SDS011;6040;49.358;11.140;2023-08-21T13:13:20;8.30;;;5.85;;
11960;SDS011;6040;49.358;11.140;2023-08-21T13:15:47;8.82;;;6.65;;
11960;SDS011;6040;49.358;11.140;2023-08-21T13:18:17;7.13;;;5.75;;
11960;SDS011;6040;49.358;11.140;2023-08-21T13:20:44;10.07;;;6.07;;
11960;SDS011;6040;49.358;11.140;2023-08-21T13:23:10;8.10;;;6.35;;
11960;SDS011;6040;49.358;11.140;2023-08-21T13:25:37;7.20;;;6.50;;
11960;SDS011;6040;49.358;11.140;2023-08-21T13:28:04;9.80;;;6.18;;
11960;SDS011;6040;49.358;11.140;2023-08-21T13:30:31;9.13;;;6.32;;
11960;SDS011;6040;49.358;11.140;2023-08-21T13:32:58;7.22;;;5.90;;
11960;SDS011;6040;49.358;11.140;2023-08-21T13:35:26;10.27;;;6.05;;
11960;SDS011;6040;49.358;11.140;2023-08-21T13:37:53;9.02;;;6.20;;
11960;SDS011;6040;49.358;11.140;2023-08-21T13:40:20;9.23;;;5.93;;
11960;SDS011;6040;49.358;11.140;2023-08-21T13:42:47;12.27;;;5.90;;
11960;SDS011;6040;49.358;11.140;2023-08-21T13:45:14;8.38;;;5.80;;
11960;SDS011;6040;49.358;11.140;2023-08-21T13:47:43;12.98;;;5.65;;
11960;SDS011;6040;49.358;11.140;2023-08-21T13:50:11;10.30;;;5.28;;
11960;SDS011;6040;49.358;11.140;2023-08-21T13:52:39;9.23;;;5.57;;
11960;SDS011;6040;49.358;11.140;2023-08-21T13:55:06;7.35;;;5.30;;
11960;SDS011;6040;49.358;11.140;2023-08-21T13:57:34;9.13;;;5.88;;
11960;SDS011;6040;49.358;11.140;2023-08-21T14:00:02;7.65;;;6.00;;
11960;SDS011;6040;49.358;11.140;2023-08-21T14:02:32;6.40;;;5.60;;
11960;SDS011;6040;49.358;11.140;2023-08-21T14:04:59;10.40;;;5.63;;
11960;SDS011;6040;49.358;11.140;2023-08-21T14:07:26;6.15;;;5.55;;
11960;SDS011;6040;49.358;11.140;2023-08-21T14:09:54;6.32;;;5.72;;
11960;SDS011;6040;49.358;11.140;2023-08-21T14:12:21;7.97;;;5.50;;
11960;SDS011;6040;49.358;11.140;2023-08-21T14:14:48;8.55;;;5.90;;
11960;SDS011;6040;49.358;11.140;2023-08-21T14:17:15;7.57;;;5.38;;
11960;SDS011;6040;49.358;11.140;2023-08-21T14:19:42;6.18;;;5.28;;
11960;SDS011;6040;49.358;11.140;2023-08-21T14:22:09;11.93;;;5.78;;
11960;SDS011;6040;49.358;11.140;2023-08-21T14:24:35;10.35;;;5.85;;
11960;SDS011;6040;49.358;11.140;2023-08-21T14:27:04;9.00;;;5.53;;
11960;SDS011;6040;49.358;11.140;2023-08-21T14:29:31;6.47;;;5.88;;
11960;SDS011;6040;49.358;11.140;2023-08-21T14:31:58;7.57;;;5.70;;
11960;SDS011;6040;49.358;11.140;2023-08-21T14:34:25;9.02;;;5.90;;
11960;SDS011;6040;49.358;11.140;2023-08-21T14:36:52;6.25;;;5.45;;